Time;durP1;ratioP1;P1;durP2;ratioP2;P2;SDS_P1;SDS_P2;PMS_P1;PMS_P2;Temp;Humidity;BMP_temperature;BMP_pressure;BME280_temperature;BME280_humidity;BME280_pressure;Samples;Min_cycle;Max_cycle;Signal;HPM_P1;HPM_P2
2024/01/14 00:05:40;;;;;;;59.25;53.80;;;2.40;83.30;;;;;;12664446;28;20032;-76
2024/01/14 00:11:42;;;;;;;60.63;54.78;;;2.40;83.50;;;;;;12645318;28;20024;-77
2024/01/14 00:17:45;;;;;;;60.35;53.90;;;2.50;83.40;;;;;;12645103;28;20029;-77
2024/01/14 00:23:46;;;;;;;59.40;52.97;;;2.60;83.10;;;;;;12662940;28;20036;-76
2024/01/14 00:29:49;;;;;;;71.95;64.43;;;2.60;83.00;;;;;;12644343;28;20040;-77
2024/01/14 00:35:51;;;;;;;60.17;53.75;;;2.60;82.90;;;;;;12627617;28;20035;-77
2024/01/14 00:41:54;;;;;;;65.68;59.28;;;2.60;82.90;;;;;;12662030;28;20302;-77
2024/01/14 00:47:56;;;;;;;60.88;54.95;;;2.50;83.00;;;;;;12643469;28;20050;-77
2024/01/14 00:53:59;;;;;;;58.20;52.40;;;2.50;82.90;;;;;;12661501;28;20028;-77
2024/01/14 01:00:00;;;;;;;58.78;52.40;;;2.40;83.00;;;;;;12661210;28;20036;-76
2024/01/14 01:06:05;;;;;;;65.70;58.97;;;2.50;83.00;;;;;;12660984;28;20031;-77
2024/01/14 01:12:12;;;;;;;64.72;58.35;;;2.50;82.80;;;;;;12625961;28;20352;-76
2024/01/14 01:18:14;;;;;;;66.40;59.72;;;2.60;82.90;;;;;;12642386;28;20043;-77
2024/01/14 01:24:16;;;;;;;61.35;55.15;;;2.40;83.00;;;;;;12660065;28;20035;-77
2024/01/14 01:30:17;;;;;;;62.78;56.80;;;2.30;83.10;;;;;;12659801;28;20032;-77
2024/01/14 01:36:19;;;;;;;70.40;63.58;;;2.30;83.20;;;;;;12659451;28;20028;-77
2024/01/14 01:42:22;;;;;;;61.50;55.30;;;2.30;83.10;;;;;;12641229;28;20035;-77
2024/01/14 01:48:24;;;;;;;67.60;60.95;;;2.30;83.00;;;;;;12658868;28;20028;-76
2024/01/14 01:54:28;;;;;;;64.22;58.08;;;2.30;82.90;;;;;;12658583;28;20024;-76
2024/01/14 02:00:34;;;;;;;65.05;58.70;;;2.30;82.80;;;;;;12658205;28;20036;-77
2024/01/14 02:06:37;;;;;;;64.45;58.55;;;2.20;82.70;;;;;;12658004;28;20348;-77
2024/01/14 02:12:39;;;;;;;52.35;47.70;;;2.10;82.90;;;;;;12639584;28;20038;-77
2024/01/14 02:18:41;;;;;;;56.10;50.40;;;1.90;83.00;;;;;;12657349;28;20468;-77
2024/01/14 02:24:42;;;;;;;57.45;51.58;;;1.80;83.30;;;;;;12656891;28;20325;-77
2024/01/14 02:30:44;;;;;;;52.80;47.20;;;1.70;83.40;;;;;;12622191;28;20372;-77
2024/01/14 02:36:46;;;;;;;53.97;48.88;;;1.70;83.60;;;;;;12656616;28;20459;-76
2024/01/14 02:42:47;;;;;;;59.25;53.25;;;1.80;83.40;;;;;;12656354;28;20028;-77
2024/01/14 02:48:49;;;;;;;68.45;61.15;;;1.90;83.10;;;;;;12655990;28;20028;-77
2024/01/14 02:54:50;;;;;;;77.72;63.13;;;1.90;83.10;;;;;;12655875;28;20443;-77
2024/01/14 03:00:52;;;;;;;64.35;57.65;;;1.90;83.10;;;;;;12655418;28;20036;-77
2024/01/14 03:06:54;;;;;;;60.15;53.35;;;2.00;83.00;;;;;;12637305;28;20039;-76
2024/01/14 03:12:55;;;;;;;54.25;48.90;;;2.00;82.80;;;;;;12655714;28;20446;-76
2024/01/14 03:18:57;;;;;;;59.28;53.13;;;1.90;82.90;;;;;;12636845;28;20055;-77
2024/01/14 03:24:59;;;;;;;54.15;48.58;;;1.70;83.00;;;;;;12636585;28;20039;-77
2024/01/14 03:31:01;;;;;;;57.45;51.42;;;1.70;83.30;;;;;;12653355;28;20035;-77
2024/01/14 03:37:03;;;;;;;57.88;51.65;;;1.80;83.20;;;;;;12636346;28;20028;-77
2024/01/14 03:43:05;;;;;;;53.00;47.50;;;1.90;83.00;;;;;;12654022;28;20055;-77
2024/01/14 03:49:06;;;;;;;57.50;51.33;;;1.80;82.80;;;;;;12653838;28;20043;-76
2024/01/14 03:55:09;;;;;;;54.83;49.20;;;1.80;82.90;;;;;;12655445;28;20213;-76
2024/01/14 04:01:17;;;;;;;61.00;48.85;;;1.80;82.90;;;;;;12635604;28;20032;-77
2024/01/14 04:07:19;;;;;;;48.03;42.88;;;1.60;83.00;;;;;;12635696;28;20047;-74
2024/01/14 04:13:21;;;;;;;49.25;44.03;;;1.40;83.30;;;;;;12653261;28;20031;-74
2024/01/14 04:19:23;;;;;;;53.72;42.15;;;1.30;83.40;;;;;;12635422;28;20044;-74
2024/01/14 04:25:24;;;;;;;51.30;45.42;;;1.30;83.50;;;;;;12635109;28;20046;-74
2024/01/14 04:31:26;;;;;;;52.58;46.20;;;1.30;83.70;;;;;;12652841;28;20054;-74
2024/01/14 04:37:28;;;;;;;55.20;46.92;;;1.40;83.50;;;;;;12634875;28;20024;-74
2024/01/14 04:43:30;;;;;;;44.42;39.92;;;1.40;83.40;;;;;;12655098;28;20039;-74
2024/01/14 04:49:31;;;;;;;46.00;37.85;;;1.30;83.50;;;;;;12661756;28;20031;-74
2024/01/14 04:55:32;;;;;;;46.60;38.75;;;1.30;83.70;;;;;;12661535;28;20031;-74
2024/01/14 05:01:34;;;;;;;40.80;33.95;;;1.30;83.50;;;;;;12661109;28;20383;-74
2024/01/14 05:07:36;;;;;;;40.10;33.20;;;1.10;83.60;;;;;;12660973;28;20032;-74
2024/01/14 05:13:38;;;;;;;39.90;34.08;;;1.10;83.80;;;;;;12626010;28;20043;-74
2024/01/14 05:19:40;;;;;;;45.85;36.60;;;1.10;83.90;;;;;;12660349;28;20035;-74
2024/01/14 05:25:42;;;;;;;39.88;32.05;;;1.10;83.90;;;;;;12660042;28;20050;-74
2024/01/14 05:31:43;;;;;;;36.08;28.70;;;1.10;84.00;;;;;;12659713;28;20322;-74
2024/01/14 05:37:45;;;;;;;53.88;39.67;;;1.10;83.90;;;;;;12658278;28;20035;-74
2024/01/14 05:43:46;;;;;;;42.95;35.25;;;1.20;84.00;;;;;;12641261;28;20043;-74
2024/01/14 05:49:48;;;;;;;43.15;33.17;;;1.30;83.70;;;;;;12641552;28;20034;-74
2024/01/14 05:55:49;;;;;;;52.85;44.33;;;1.40;83.60;;;;;;12623343;28;20036;-74
2024/01/14 06:01:51;;;;;;;41.15;35.22;;;1.40;83.70;;;;;;12640189;28;20043;-74
2024/01/14 06:07:52;;;;;;;43.00;33.63;;;1.40;83.50;;;;;;12658049;28;20035;-74
2024/01/14 06:13:54;;;;;;;38.20;32.65;;;1.30;83.70;;;;;;12639850;28;20082;-74
2024/01/14 06:19:56;;;;;;;38.35;32.10;;;1.10;83.70;;;;;;12623035;28;20360;-74
2024/01/14 06:25:57;;;;;;;35.00;26.38;;;1.10;83.90;;;;;;12657125;28;20046;-74
2024/01/14 06:32:18;;;;;;;32.67;27.60;;;0.90;84.00;;;;;;12656795;28;20028;-74
2024/01/14 06:38:19;;;;;;;32.10;26.85;;;1.10;84.10;;;;;;12622036;28;20028;-74
2024/01/14 06:44:21;;;;;;;38.97;29.52;;;0.90;83.90;;;;;;12656308;28;20028;-74
2024/01/14 06:50:22;;;;;;;34.22;25.70;;;0.80;84.00;;;;;;12638200;28;20039;-74
2024/01/14 06:56:24;;;;;;;32.20;21.70;;;0.80;84.10;;;;;;12661507;22;20024;-74
2024/01/14 07:02:26;;;;;;;29.80;20.73;;;0.80;84.10;;;;;;12655557;28;20036;-74
2024/01/14 07:08:45;;;;;;;29.48;23.20;;;0.70;84.10;;;;;;12654995;28;20039;-74
2024/01/14 07:14:47;;;;;;;40.40;23.90;;;0.70;84.20;;;;;;12637902;28;20031;-74
2024/01/14 07:20:49;;;;;;;33.00;23.30;;;0.70;84.20;;;;;;12620064;28;20027;-74
2024/01/14 07:26:50;;;;;;;28.05;22.38;;;0.70;84.40;;;;;;12654564;28;20020;-76
2024/01/14 07:32:52;;;;;;;33.78;25.67;;;1.00;84.40;;;;;;12654343;28;20031;-76
2024/01/14 07:38:55;;;;;;;37.38;28.33;;;1.00;84.30;;;;;;12654212;28;20024;-74
2024/01/14 07:44:56;;;;;;;32.78;26.98;;;1.10;84.30;;;;;;12628561;28;20032;-74
2024/01/14 07:50:58;;;;;;;34.67;27.13;;;1.20;84.20;;;;;;12619316;28;20039;-74
2024/01/14 07:57:00;;;;;;;35.60;29.85;;;1.30;84.10;;;;;;12635735;28;20040;-74
2024/01/14 08:03:02;;;;;;;35.33;31.08;;;1.20;84.20;;;;;;12635720;28;20459;-74
2024/01/14 08:09:04;;;;;;;33.88;30.42;;;1.30;84.30;;;;;;12653507;28;20032;-74
2024/01/14 08:15:06;;;;;;;44.13;36.03;;;1.30;84.30;;;;;;12653468;28;20028;-74
2024/01/14 08:21:11;;;;;;;42.72;37.28;;;1.20;84.40;;;;;;12625752;28;20048;-74
2024/01/14 08:27:14;;;;;;;32.67;29.45;;;1.20;84.40;;;;;;12645806;28;20040;-74
2024/01/14 08:33:16;;;;;;;38.70;34.88;;;1.30;84.50;;;;;;12662617;28;20031;-74
2024/01/14 08:39:18;;;;;;;42.03;36.97;;;1.30;84.50;;;;;;12678074;28;20358;-74
2024/01/14 08:45:19;;;;;;;39.47;35.35;;;1.30;84.50;;;;;;12662058;28;20020;-74
2024/01/14 08:51:21;;;;;;;35.22;31.70;;;1.30;84.60;;;;;;12661668;28;20032;-74
2024/01/14 08:57:24;;;;;;;39.25;35.25;;;1.40;84.90;;;;;;12643854;28;20040;-77
2024/01/14 09:03:26;;;;;;;37.75;34.35;;;1.60;84.80;;;;;;12661197;28;20032;-77
2024/01/14 09:09:28;;;;;;;42.22;38.67;;;1.70;84.80;;;;;;12660828;28;20036;-76
2024/01/14 09:15:30;;;;;;;42.08;38.53;;;1.70;84.90;;;;;;12643313;28;20028;-77
2024/01/14 09:21:32;;;;;;;45.92;41.97;;;1.80;84.80;;;;;;12642826;28;20044;-77
2024/01/14 09:27:34;;;;;;;38.50;35.00;;;1.80;84.80;;;;;;12660172;28;20463;-77
2024/01/14 09:33:36;;;;;;;43.72;39.83;;;1.90;85.00;;;;;;12659471;28;20317;-77
2024/01/14 09:39:38;;;;;;;44.03;40.15;;;2.10;85.00;;;;;;12659592;28;20036;-77
2024/01/14 09:45:40;;;;;;;44.55;40.92;;;2.10;84.70;;;;;;12642122;28;20428;-77
2024/01/14 09:51:42;;;;;;;45.83;41.80;;;2.20;84.70;;;;;;12658847;28;20028;-74
2024/01/14 09:57:48;;;;;;;47.70;43.72;;;2.30;84.50;;;;;;12641293;28;20044;-74
2024/01/14 10:03:51;;;;;;;53.53;48.10;;;2.40;84.50;;;;;;12640204;28;20024;-74
2024/01/14 10:09:53;;;;;;;38.45;34.72;;;2.50;84.40;;;;;;12657923;28;20047;-74
2024/01/14 10:15:55;;;;;;;48.08;42.17;;;2.70;84.20;;;;;;12657759;28;20436;-74
2024/01/14 10:21:57;;;;;;;34.50;31.10;;;2.70;84.00;;;;;;12657544;28;20036;-74
2024/01/14 10:28:08;;;;;;;45.33;40.92;;;2.90;83.90;;;;;;12639297;28;20040;-74
2024/01/14 10:34:10;;;;;;;39.88;35.92;;;3.10;83.90;;;;;;12639295;28;20133;-74
2024/01/14 10:40:13;;;;;;;41.17;36.30;;;3.20;83.80;;;;;;12638376;28;20047;-73
2024/01/14 10:46:15;;;;;;;32.58;26.70;;;3.30;83.70;;;;;;12638375;28;20039;-74
2024/01/14 10:52:23;;;;;;;47.80;43.65;;;3.50;83.60;;;;;;12655835;28;20040;-74
2024/01/14 10:58:36;;;;;;;42.63;33.45;;;3.60;83.40;;;;;;12655678;28;20035;-73
2024/01/14 11:04:38;;;;;;;58.22;52.97;;;3.70;82.90;;;;;;12655579;28;20032;-74
2024/01/14 11:10:40;;;;;;;66.50;60.20;;;3.90;83.00;;;;;;12656066;28;20028;-73
2024/01/14 11:16:54;;;;;;;54.17;49.15;;;4.00;82.40;;;;;;12655084;28;20024;-74
2024/01/14 11:22:56;;;;;;;72.25;66.07;;;4.20;82.10;;;;;;12636635;28;20044;-74
2024/01/14 11:29:02;;;;;;;67.00;61.05;;;4.30;81.40;;;;;;12654543;28;20038;-74
2024/01/14 11:35:05;;;;;;;65.97;60.15;;;4.50;81.60;;;;;;12654395;28;20024;-74
2024/01/14 11:41:28;;;;;;;74.70;68.57;;;4.70;81.50;;;;;;12654231;28;20441;-74
2024/01/14 11:47:37;;;;;;;67.25;61.38;;;4.90;80.90;;;;;;12621717;28;20029;-73
2024/01/14 11:53:38;;;;;;;43.70;37.97;;;5.10;80.80;;;;;;12618729;28;20047;-74
2024/01/14 11:59:40;;;;;;;108.82;100.65;;;5.20;80.40;;;;;;12614542;28;20340;-74
2024/01/14 12:05:44;;;;;;;92.18;85.82;;;5.20;79.80;;;;;;12613646;28;20032;-74
2024/01/14 12:11:46;;;;;;;92.88;86.07;;;5.20;79.90;;;;;;12613314;28;20450;-74
2024/01/14 12:17:59;;;;;;;76.38;69.97;;;5.30;80.10;;;;;;12610134;28;20020;-73
2024/01/14 12:24:07;;;;;;;93.63;86.93;;;5.40;80.80;;;;;;12612680;28;20444;-74
2024/01/14 12:30:09;;;;;;;85.88;79.72;;;5.40;80.70;;;;;;12491574;28;20041;-73
2024/01/14 12:36:13;;;;;;;85.93;79.05;;;5.40;81.20;;;;;;12507223;28;20048;-73
2024/01/14 12:42:15;;;;;;;99.10;92.22;;;5.40;80.80;;;;;;12505323;28;20038;-74
2024/01/14 12:48:24;;;;;;;85.22;79.43;;;5.50;80.60;;;;;;12474442;28;20045;-74
2024/01/14 12:54:27;;;;;;;99.20;91.93;;;5.50;80.70;;;;;;12490021;28;20044;-74
2024/01/14 13:00:30;;;;;;;75.30;70.03;;;5.50;80.50;;;;;;12577986;28;20056;-74
2024/01/14 13:06:39;;;;;;;86.32;80.03;;;5.50;80.40;;;;;;12593409;28;20036;-74
2024/01/14 13:13:05;;;;;;;81.40;75.72;;;5.50;80.50;;;;;;12541414;28;20361;-74
2024/01/14 13:19:10;;;;;;;92.82;86.70;;;5.40;80.40;;;;;;12538195;28;20381;-73
2024/01/14 13:25:13;;;;;;;83.28;77.40;;;5.30;80.30;;;;;;12554678;28;20033;-73
2024/01/14 13:31:16;;;;;;;61.58;56.45;;;5.10;80.40;;;;;;12554419;28;20053;-73
2024/01/14 13:37:28;;;;;;;70.68;65.22;;;5.00;80.60;;;;;;12554190;28;20367;-73
2024/01/14 13:43:30;;;;;;;64.32;58.97;;;4.90;80.70;;;;;;12537416;28;20059;-73
2024/01/14 13:49:32;;;;;;;68.22;62.72;;;4.90;80.90;;;;;;12553606;28;20221;-74
2024/01/14 13:55:34;;;;;;;65.43;60.78;;;4.90;80.90;;;;;;12587735;28;20456;-74
2024/01/14 14:01:38;;;;;;;59.45;55.30;;;4.90;80.90;;;;;;12590192;28;20040;-74
2024/01/14 14:07:42;;;;;;;73.95;68.68;;;4.90;80.90;;;;;;12590383;28;20455;-74
2024/01/14 14:13:45;;;;;;;68.18;63.65;;;4.90;81.00;;;;;;12590065;28;20041;-74
2024/01/14 14:19:52;;;;;;;58.70;54.55;;;4.90;81.00;;;;;;12606569;28;20036;-74
2024/01/14 14:26:23;;;;;;;65.07;59.92;;;4.80;81.10;;;;;;12607771;28;20039;-74
2024/01/14 14:32:26;;;;;;;77.30;70.88;;;4.70;81.00;;;;;;12606671;28;20055;-74
2024/01/14 14:38:49;;;;;;;48.63;43.90;;;4.70;80.90;;;;;;12606439;28;20460;-74
2024/01/14 14:44:51;;;;;;;60.55;55.33;;;4.70;80.80;;;;;;12606125;28;20419;-74
2024/01/14 14:50:54;;;;;;;60.97;55.10;;;4.70;80.80;;;;;;12658214;28;20043;-74
2024/01/14 14:56:59;;;;;;;81.80;75.43;;;4.60;80.80;;;;;;12685964;22;20053;-74
2024/01/14 15:03:02;;;;;;;68.95;63.58;;;4.60;80.80;;;;;;12506121;28;20033;-74
2024/01/14 15:09:05;;;;;;;61.43;56.43;;;4.60;80.70;;;;;;12488525;28;20041;-74
2024/01/14 15:15:08;;;;;;;61.35;56.28;;;4.50;80.60;;;;;;12507415;28;20481;-74
2024/01/14 15:21:10;;;;;;;78.57;72.13;;;4.60;80.70;;;;;;12504709;28;20050;-76
2024/01/14 15:27:12;;;;;;;62.42;56.85;;;4.50;80.80;;;;;;12503747;28;20060;-76
2024/01/14 15:33:14;;;;;;;46.10;42.03;;;4.50;80.90;;;;;;12520256;28;20033;-76
2024/01/14 15:39:17;;;;;;;70.32;65.20;;;4.50;81.10;;;;;;12504826;28;20033;-76
2024/01/14 15:45:18;;;;;;;68.80;63.92;;;4.40;81.20;;;;;;12504608;28;20033;-76
2024/01/14 15:51:21;;;;;;;50.28;45.85;;;4.30;81.50;;;;;;12487666;28;20045;-76
2024/01/14 15:57:24;;;;;;;44.22;40.17;;;4.30;81.70;;;;;;12519714;28;20048;-77
2024/01/14 16:03:25;;;;;;;56.08;51.80;;;4.20;81.80;;;;;;12486582;28;20105;-74
2024/01/14 16:09:27;;;;;;;53.63;49.47;;;4.20;82.00;;;;;;12552729;28;20044;-74
2024/01/14 16:15:29;;;;;;;37.53;34.67;;;4.10;82.10;;;;;;12553385;28;20032;-74
2024/01/14 16:21:31;;;;;;;39.13;36.30;;;4.10;82.20;;;;;;12536329;28;20488;-74
2024/01/14 16:27:32;;;;;;;44.47;40.88;;;4.10;82.30;;;;;;12554106;28;20218;-76
2024/01/14 16:33:34;;;;;;;50.88;47.00;;;4.10;82.40;;;;;;12535665;28;20446;-76
2024/01/14 16:39:36;;;;;;;36.35;33.38;;;4.10;82.40;;;;;;12555421;28;20029;-76
2024/01/14 16:45:38;;;;;;;40.45;36.85;;;4.10;82.50;;;;;;12544413;28;20445;-74
2024/01/14 16:51:39;;;;;;;41.70;37.42;;;4.10;82.60;;;;;;12544024;28;20063;-74
2024/01/14 16:57:41;;;;;;;59.78;54.85;;;4.10;82.50;;;;;;12553750;28;20450;-73
2024/01/14 17:03:43;;;;;;;38.55;35.05;;;4.00;82.70;;;;;;12561144;28;20449;-74
2024/01/14 17:09:45;;;;;;;39.85;35.55;;;3.90;82.70;;;;;;12519856;28;20048;-74
2024/01/14 17:15:49;;;;;;;44.92;40.55;;;3.90;82.80;;;;;;12459687;28;20026;-74
2024/01/14 17:21:51;;;;;;;40.88;36.58;;;3.80;82.80;;;;;;12461606;28;20037;-74
2024/01/14 17:27:53;;;;;;;48.92;43.92;;;3.80;82.90;;;;;;12461451;28;20097;-74
2024/01/14 17:33:54;;;;;;;63.00;57.63;;;3.80;83.20;;;;;;12460212;28;20143;-74
2024/01/14 17:39:56;;;;;;;68.88;59.85;;;3.80;83.10;;;;;;12460905;28;20030;-76
2024/01/14 17:45:59;;;;;;;61.25;55.90;;;3.80;83.40;;;;;;12443257;28;20041;-76
2024/01/14 17:52:01;;;;;;;50.20;45.40;;;3.70;83.30;;;;;;12459136;28;20056;-76
2024/01/14 17:58:04;;;;;;;52.10;43.22;;;3.70;83.50;;;;;;12458859;28;20040;-76
2024/01/14 18:04:05;;;;;;;58.03;52.05;;;3.80;83.40;;;;;;12442424;28;20030;-76
2024/01/14 18:10:09;;;;;;;45.90;41.17;;;3.70;83.50;;;;;;12458547;28;20044;-76
2024/01/14 18:16:11;;;;;;;67.22;61.30;;;3.80;83.70;;;;;;12459312;28;20037;-76
2024/01/14 18:22:13;;;;;;;62.38;55.72;;;3.80;83.80;;;;;;12458985;28;20045;-76
2024/01/14 18:28:14;;;;;;;69.60;63.15;;;3.90;84.00;;;;;;12457515;28;20045;-76
2024/01/14 18:34:16;;;;;;;51.70;46.33;;;3.80;84.20;;;;;;12458237;28;20080;-76
2024/01/14 18:40:19;;;;;;;55.72;50.90;;;3.70;84.20;;;;;;12441211;28;20042;-76
2024/01/14 18:46:21;;;;;;;47.22;42.42;;;3.70;84.20;;;;;;12473228;28;20030;-76
2024/01/14 18:52:23;;;;;;;63.05;55.47;;;3.80;84.10;;;;;;12470258;28;20033;-76
2024/01/14 18:58:24;;;;;;;56.42;50.92;;;3.70;83.90;;;;;;12488768;28;20446;-76
2024/01/14 19:04:26;;;;;;;44.03;39.72;;;3.70;84.00;;;;;;12505754;28;20327;-74
2024/01/14 19:10:28;;;;;;;59.58;48.72;;;3.80;84.10;;;;;;12505361;28;20159;-74
2024/01/14 19:16:30;;;;;;;64.05;58.38;;;3.80;84.20;;;;;;12505716;28;20034;-74
2024/01/14 19:22:31;;;;;;;52.22;46.60;;;3.90;84.20;;;;;;12487843;28;20051;-74
2024/01/14 19:28:33;;;;;;;48.13;43.25;;;3.80;84.10;;;;;;12505237;28;20034;-74
2024/01/14 19:34:35;;;;;;;59.50;53.17;;;3.80;84.30;;;;;;12504946;28;20030;-74
2024/01/14 19:40:37;;;;;;;65.72;59.78;;;3.80;84.20;;;;;;12487329;28;20460;-77
2024/01/14 19:46:39;;;;;;;61.00;55.67;;;3.80;84.30;;;;;;12504676;28;20468;-76
2024/01/14 19:52:41;;;;;;;57.78;52.92;;;3.80;84.30;;;;;;12504465;28;20042;-77
2024/01/14 19:58:43;;;;;;;54.75;49.53;;;3.90;84.30;;;;;;12504367;28;20044;-76
2024/01/14 20:04:45;;;;;;;61.00;55.55;;;3.90;84.30;;;;;;12504392;28;20030;-76
2024/01/14 20:10:47;;;;;;;64.22;57.25;;;3.80;84.30;;;;;;12486527;28;20037;-76
2024/01/14 20:16:50;;;;;;;61.72;55.58;;;3.90;84.50;;;;;;12492809;28;20032;-77
2024/01/14 20:22:52;;;;;;;56.30;50.35;;;3.90;84.50;;;;;;12513845;28;20036;-76
2024/01/14 20:28:54;;;;;;;57.13;51.70;;;3.90;84.50;;;;;;12513468;28;20040;-77
2024/01/14 20:34:56;;;;;;;58.85;53.03;;;3.90;84.50;;;;;;12495633;28;20473;-76
2024/01/14 20:40:58;;;;;;;67.32;61.40;;;3.90;84.40;;;;;;12511925;28;20450;-74
2024/01/14 20:47:05;;;;;;;56.90;51.90;;;3.90;84.50;;;;;;12524022;28;20033;-74
2024/01/14 20:53:06;;;;;;;67.65;61.75;;;3.90;84.60;;;;;;12512263;28;20353;-74
2024/01/14 20:59:08;;;;;;;76.88;69.70;;;3.90;84.60;;;;;;12512110;28;20033;-74
2024/01/14 21:05:10;;;;;;;56.58;51.13;;;3.90;84.60;;;;;;12511846;28;20346;-77
2024/01/14 21:11:13;;;;;;;56.78;51.72;;;3.90;84.60;;;;;;12511587;28;20353;-76
2024/01/14 21:17:14;;;;;;;52.17;47.35;;;3.90;84.50;;;;;;12511271;28;20036;-74
2024/01/14 21:23:17;;;;;;;51.28;46.35;;;3.90;84.70;;;;;;12510042;28;20064;-74
2024/01/14 21:29:18;;;;;;;59.42;53.20;;;3.90;84.60;;;;;;12510359;28;20441;-74
2024/01/14 21:35:20;;;;;;;75.45;68.25;;;3.90;84.70;;;;;;12476813;28;20040;-74
2024/01/14 21:41:22;;;;;;;47.92;43.58;;;3.90;84.70;;;;;;12510123;28;20029;-74
2024/01/14 21:47:23;;;;;;;60.00;55.13;;;3.90;84.50;;;;;;12509836;28;20052;-74
2024/01/14 21:53:25;;;;;;;48.53;43.85;;;3.90;84.60;;;;;;12510157;28;20045;-74
2024/01/14 21:59:27;;;;;;;53.72;48.88;;;3.90;84.70;;;;;;12509178;28;20044;-74
2024/01/14 22:05:28;;;;;;;56.55;50.88;;;3.90;84.60;;;;;;12509005;28;20030;-74
2024/01/14 22:11:30;;;;;;;54.28;49.50;;;3.90;84.50;;;;;;12508686;28;20434;-74
2024/01/14 22:17:33;;;;;;;54.45;49.83;;;3.80;84.60;;;;;;12493884;28;20036;-74
2024/01/14 22:23:37;;;;;;;57.45;51.92;;;3.90;84.70;;;;;;12489953;28;20041;-73
2024/01/14 22:29:39;;;;;;;71.40;64.80;;;3.90;84.80;;;;;;12490633;28;20033;-73
2024/01/14 22:35:41;;;;;;;63.13;53.38;;;3.90;84.60;;;;;;12490252;28;20430;-73
2024/01/14 22:41:42;;;;;;;71.05;63.97;;;3.90;84.80;;;;;;12507184;28;20033;-73
2024/01/14 22:47:44;;;;;;;65.43;58.63;;;3.90;84.90;;;;;;12507075;28;20040;-73
2024/01/14 22:53:46;;;;;;;67.60;60.53;;;3.80;85.10;;;;;;12506702;28;20032;-74
2024/01/14 22:59:47;;;;;;;61.30;53.80;;;3.90;85.10;;;;;;12495502;23;20139;-74
2024/01/14 23:05:49;;;;;;;62.10;56.20;;;3.80;84.80;;;;;;12472484;28;20060;-74
2024/01/14 23:11:50;;;;;;;56.53;50.20;;;3.80;84.70;;;;;;12488955;28;20315;-74
2024/01/14 23:17:52;;;;;;;45.80;40.95;;;3.80;85.00;;;;;;12489048;28;20049;-74
2024/01/14 23:23:54;;;;;;;59.65;53.85;;;3.90;85.00;;;;;;12505491;28;20037;-74
2024/01/14 23:29:55;;;;;;;63.55;57.13;;;3.90;84.90;;;;;;12505296;28;20037;-74
2024/01/14 23:35:56;;;;;;;67.20;60.10;;;3.90;85.00;;;;;;12487448;28;20037;-74
2024/01/14 23:41:58;;;;;;;52.03;46.95;;;4.00;84.90;;;;;;12504855;28;20345;-74
2024/01/14 23:48:00;;;;;;;69.30;62.25;;;3.80;84.90;;;;;;12504609;28;20037;-74
2024/01/14 23:54:01;;;;;;;60.85;55.25;;;3.90;85.00;;;;;;12505152;28;20036;-74
